Miramar Marine Corps Air Station
KNKX : now visible

Airfield :











YOU CAN JOIN US ON...

 
LOGIN :

Register | Disclaimer

   EN    FR    IT 

 









Legend :    VFR   Marginal VFR   IFR   Intensive IFR   Very Intensive IFR
Visi :
Ceiling :
>= 8 km
>= 3000ft
5 to 8 km
1000 to 3000 ft
1500m to 5 km
500 to 1000 ft
800 to 1500m
200 to 500 ft
< 800m
< 200 ft
Symbols :   Thunderstorms  Fog  Heavy snow  Heavy precipitations  Wind > 20 kt






- Airport Elevation : 477 ft


KNKX - Miramar Marine Corps Air Station

CURRENT METAR :
  • 150807Z 28004KT 8SM BKN009 20/18 A2987 RMK AO2 T02000183

EXPIRED METARs :
  • 150755Z 28005KT 8SM FEW009 20/18 A2988 RMK AO2 SLP110 T02000183 403000183
  • 150655Z 25004KT 8SM FEW015 20/18 A2989 RMK AO2 SLP115 T02000183
  • 150555Z 00000KT 10SM SCT015 21/18 A2990 RMK AO2 SLP117 T02060183 10283 20206 51006

TAF TAF KNKX
Valid from the 15 at 03:00 until the 16 at 03:00 UTC


1503/1603 VRB05KT 9999 FEW015 FEW060 QNH2985INS
BECMG 1510/1512 VRB05KT 8000 BR BKN007 QNH2983INS
FM151530 VRB05KT 9999 FEW120 QNH2984INS
BECMG 1518/1520 26008KT 9999 SCT120 QNH2980INS T19/1513Z T30/1520Z
KZLA FIR / North America



MET'MAP, your aeronautical weather chart ! - Copyright ORBIFLY December 2007 - Disclaimer

ORBIFLY MET'MAP TEAM :

Programming & Development : Alexandra Zaïnal
Original concept : Baudouin d'Aumeries
Technical & hardware support : Manuel Goepfert
Assistance : Marc-Olivier Méhu




SOURCES & CREDITS :

   NOAA       Earth
Advisory